Time;durP1;ratioP1;P1;durP2;ratioP2;P2;SDS_P1;SDS_P2;PMS_P1;PMS_P2;Temp;Humidity;BMP_temperature;BMP_pressure;BME280_temperature;BME280_humidity;BME280_pressure;Samples;Min_cycle;Max_cycle;Signal;HPM_P1;HPM_P2
2023/03/28 00:01:05;;;;;;;13.55;3.33;;;;;;;5.06;100.00;101197.44;4898557;29;20039;-95
2023/03/28 00:03:35;;;;;;;17.27;4.10;;;;;;;5.06;100.00;101207.69;4898921;29;20428;-95
2023/03/28 00:06:01;;;;;;;15.32;4.30;;;;;;;5.07;100.00;101214.50;4914471;29;20104;-94
2023/03/28 00:08:27;;;;;;;16.98;3.75;;;;;;;4.76;100.00;101167.44;4898353;29;20190;-96
2023/03/28 00:11:20;;;;;;;12.40;4.10;;;;;;;4.93;100.00;101190.94;4898457;29;20036;-95
2023/03/28 00:13:46;;;;;;;;;;;;;;;5.01;100.00;101201.00;4914743;29;20100;-95
2023/03/28 00:16:12;;;;;;;12.40;3.45;;;;;;;4.85;100.00;101167.22;4898344;29;20371;-94
2023/03/28 00:18:37;;;;;;;10.38;3.50;;;;;;;4.77;100.00;101164.84;4898330;29;20127;-95
2023/03/28 00:21:06;;;;;;;11.15;3.88;;;;;;;4.76;100.00;101157.22;4898040;29;20128;-96
2023/03/28 00:23:34;;;;;;;15.27;4.07;;;;;;;4.90;100.00;101178.19;4913054;29;20084;-95
2023/03/28 00:26:06;;;;;;;13.68;4.75;;;;;;;4.88;100.00;101156.94;4898089;29;20029;-95
2023/03/28 00:28:34;;;;;;;15.57;4.50;;;;;;;4.66;100.00;101136.13;4913815;29;20484;-95
2023/03/28 00:31:07;;;;;;;12.32;4.20;;;;;;;4.67;100.00;101138.63;4898132;29;20036;-95
2023/03/28 00:33:32;;;;;;;10.38;3.92;;;;;;;4.91;100.00;101179.88;4913444;29;20033;-95
2023/03/28 00:35:58;;;;;;;18.92;4.63;;;;;;;4.85;100.00;101167.22;4897799;29;20036;-95
2023/03/28 00:38:24;;;;;;;13.52;4.63;;;;;;;4.70;100.00;101128.31;4897735;29;20029;-96
2023/03/28 00:40:49;;;;;;;19.73;4.05;;;;;;;4.64;100.00;101117.41;4898118;29;20124;-95
2023/03/28 00:43:14;;;;;;;9.07;3.08;;;;;;;4.65;100.00;101113.97;4898002;29;20037;-95
2023/03/28 00:45:41;;;;;;;10.82;3.30;;;;;;;4.76;100.00;101124.81;4898059;29;20032;-95
2023/03/28 00:48:12;;;;;;;7.72;3.30;;;;;;;4.90;100.00;101137.25;4897923;29;20044;-95
2023/03/28 00:50:41;;;;;;;9.65;3.60;;;;;;;4.96;100.00;101138.88;4897987;29;20483;-95
2023/03/28 00:53:15;;;;;;;14.98;3.55;;;;;;;4.94;100.00;101115.88;4897699;29;20039;-96
2023/03/28 00:55:49;;;;;;;13.13;3.90;;;;;;;5.08;100.00;101134.28;4897537;29;20028;-96
2023/03/28 00:58:22;;;;;;;15.00;3.92;;;;;;;4.98;100.00;101102.13;4897412;29;20032;-95
2023/03/28 01:00:48;;;;;;;16.92;4.50;;;;;;;4.98;100.00;101112.38;4913220;29;20027;-95
2023/03/28 01:03:17;;;;;;;15.90;3.58;;;;;;;4.89;100.00;101098.06;4897492;29;20028;-94
2023/03/28 01:05:44;;;;;;;13.30;3.72;;;;;;;4.91;100.00;101095.47;4913072;29;20056;-95
2023/03/28 01:08:31;;;;;;;15.15;3.88;;;;;;;4.96;100.00;101092.81;4897494;29;20127;-95
2023/03/28 01:10:57;;;;;;;20.55;5.13;;;;;;;4.88;100.00;101086.16;4912961;29;20575;-96
2023/03/28 01:13:30;;;;;;;16.58;5.00;;;;;;;5.08;100.00;101103.59;4897265;29;20048;-95
2023/03/28 01:15:58;;;;;;;16.08;4.45;;;;;;;5.18;100.00;101103.38;4896949;29;20036;-95
2023/03/28 01:18:24;;;;;;;10.25;3.90;;;;;;;5.08;100.00;101083.13;4897189;29;20025;-94
2023/03/28 01:20:50;;;;;;;13.85;3.70;;;;;;;5.14;100.00;101103.47;4897083;29;20025;-95
2023/03/28 01:23:34;;;;;;;19.02;4.22;;;;;;;5.13;100.00;101106.03;4897062;29;20035;-95
2023/03/28 01:26:39;;;;;;;18.90;5.55;;;;;;;5.15;100.00;101094.88;4897150;29;20029;-96
2023/03/28 01:29:26;;;;;;;11.93;3.30;;;;;;;5.13;100.00;101091.53;4897006;29;20032;-95
2023/03/28 01:32:10;;;;;;;16.92;4.32;;;;;;;5.18;100.00;101085.47;4896922;29;20029;-94
2023/03/28 01:34:49;;;;;;;14.10;5.22;;;;;;;5.17;100.00;101087.19;4896894;29;20108;-95
2023/03/28 01:37:36;;;;;;;17.23;5.32;;;;;;;5.24;100.00;101087.84;4896879;29;20047;-95
2023/03/28 01:40:23;;;;;;;15.52;4.80;;;;;;;5.20;100.00;101081.16;4896588;29;20575;-95
2023/03/28 01:43:11;;;;;;;16.35;5.38;;;;;;;5.21;100.00;101072.59;4896895;29;20032;-95
2023/03/28 01:45:47;;;;;;;11.15;4.13;;;;;;;5.28;100.00;101069.00;4896799;29;20110;-94
2023/03/28 01:48:27;;;;;;;16.65;5.55;;;;;;;5.34;100.00;101069.69;4896883;29;20038;-96
2023/03/28 01:51:08;;;;;;;17.05;4.95;;;;;;;5.14;100.00;101028.38;4896791;29;20032;-95
2023/03/28 01:53:52;;;;;;;17.05;4.70;;;;;;;5.33;100.00;101062.03;4896839;29;20025;-95
2023/03/28 01:56:39;;;;;;;12.15;4.10;;;;;;;5.36;100.00;101051.72;4896826;29;20029;-96
2023/03/28 01:59:16;;;;;;;12.45;4.38;;;;;;;5.29;100.00;101019.47;4896853;29;20028;-96
2023/03/28 02:01:54;;;;;;;14.73;4.40;;;;;;;5.42;100.00;101037.94;4912739;29;20025;-95
2023/03/28 02:04:24;;;;;;;13.88;4.90;;;;;;;5.25;100.00;101005.94;4896734;29;20032;-95
2023/03/28 02:06:51;;;;;;;23.60;6.07;;;;;;;5.35;100.00;101011.66;4896855;29;20025;-96
2023/03/28 02:09:20;;;;;;;9.20;3.85;;;;;;;5.36;100.00;100997.94;4896644;29;20395;-95
2023/03/28 02:11:51;;;;;;;14.20;4.70;;;;;;;5.39;100.00;100985.09;4896507;29;20021;-95
2023/03/28 02:14:21;;;;;;;12.02;3.90;;;;;;;5.50;100.00;101000.97;4912486;29;20524;-95
2023/03/28 02:16:51;;;;;;;14.30;4.57;;;;;;;5.47;100.00;100988.28;4896569;29;20484;-95
2023/03/28 02:19:19;;;;;;;19.48;6.32;;;;;;;5.43;100.00;100961.06;4896744;29;20063;-95
2023/03/28 02:21:57;;;;;;;14.27;6.05;;;;;;;5.45;100.00;100956.75;4897011;29;20025;-95
2023/03/28 02:24:24;;;;;;;17.25;7.07;;;;;;;5.52;100.00;100965.94;4912454;29;20024;-96
2023/03/28 02:26:50;;;;;;;18.13;8.45;;;;;;;5.48;100.00;100959.22;4896508;29;20033;-95
2023/03/28 02:29:17;;;;;;;20.08;7.47;;;;;;;5.51;100.00;100956.59;4896601;29;20024;-95
2023/03/28 02:31:42;;;;;;;13.85;5.20;;;;;;;5.48;100.00;100948.97;4896997;29;20021;-95
2023/03/28 02:34:08;;;;;;;28.17;7.43;;;;;;;5.61;100.00;100938.38;4896220;29;20028;-95
2023/03/28 02:36:56;;;;;;;15.02;6.63;;;;;;;5.48;100.00;100923.38;4897127;29;20135;-96
2023/03/28 02:39:47;;;;;;;18.25;5.28;;;;;;;5.76;100.00;100964.41;4912583;29;20021;-95
2023/03/28 02:42:22;;;;;;;12.38;4.63;;;;;;;5.76;100.00;100951.59;4896479;29;20025;-95
2023/03/28 02:45:21;;;;;;;12.77;4.47;;;;;;;5.61;100.00;100897.41;4896753;29;20025;-95
2023/03/28 02:48:06;;;;;;;17.35;5.47;;;;;;;5.51;100.00;100897.72;4899815;29;20039;-96
2023/03/28 02:50:56;;;;;;;28.70;7.82;;;;;;;5.72;100.00;100931.25;4899870;29;20119;-95
2023/03/28 02:53:35;;;;;;;35.15;9.25;;;;;;;5.60;100.00;100904.25;4899758;29;20387;-95
2023/03/28 02:56:42;;;;;;;20.77;10.98;;;;;;;5.61;100.00;100905.97;4900124;29;20067;-94
2023/03/28 02:59:38;;;;;;;23.65;9.63;;;;;;;5.82;100.00;100931.81;4915700;29;20057;-95
2023/03/28 03:02:03;;;;;;;32.47;10.65;;;;;;;5.69;100.00;100909.13;4899376;29;20498;-95
2023/03/28 03:04:29;;;;;;;24.23;11.95;;;;;;;5.70;100.00;100913.34;4899591;29;20052;-95
2023/03/28 03:06:54;;;;;;;16.50;11.25;;;;;;;5.62;100.00;100904.22;4899550;29;20035;-96
2023/03/28 03:09:21;;;;;;;22.63;10.50;;;;;;;5.73;100.00;100908.16;4899714;29;20028;-95
2023/03/28 03:11:47;;;;;;;11.00;6.97;;;;;;;5.56;100.00;100895.84;4899442;29;20317;-94
2023/03/28 03:14:12;;;;;;;13.98;8.48;;;;;;;5.48;100.00;100866.22;4914986;29;20596;-96
2023/03/28 03:16:38;;;;;;;23.88;11.63;;;;;;;5.56;100.00;100895.03;4899418;29;20032;-95
2023/03/28 03:19:03;;;;;;;16.40;8.45;;;;;;;5.52;100.00;100895.97;4899529;29;20479;-96
2023/03/28 03:21:29;;;;;;;21.45;9.63;;;;;;;5.47;100.00;100901.22;4899305;29;20083;-95
2023/03/28 03:23:54;;;;;;;23.08;8.32;;;;;;;5.45;100.00;100874.84;4899256;29;20033;-95
2023/03/28 03:26:21;;;;;;;17.50;12.73;;;;;;;5.66;100.00;100898.16;4899428;29;20161;-96
2023/03/28 03:28:48;;;;;;;26.13;14.52;;;;;;;5.57;100.00;100871.06;4899277;29;20032;-96
2023/03/28 03:31:16;;;;;;;31.58;17.75;;;;;;;5.52;100.00;100875.50;4914906;29;20136;-95
2023/03/28 03:33:41;;;;;;;37.80;23.58;;;;;;;5.51;100.00;100856.75;4914948;29;20043;-95
2023/03/28 03:36:08;;;;;;;39.55;21.25;;;;;;;5.57;100.00;100856.53;4914773;29;20406;-96
2023/03/28 03:38:34;;;;;;;32.17;23.55;;;;;;;5.54;100.00;100845.56;4899102;29;20127;-95
2023/03/28 03:41:00;;;;;;;29.52;17.73;;;;;;;5.57;100.00;100859.09;4899013;29;20115;-95
2023/03/28 03:43:26;;;;;;;103.68;54.40;;;;;;;5.36;100.00;100831.56;4898818;29;20173;-96
2023/03/28 03:45:52;;;;;;;432.48;103.45;;;;;;;5.43;100.00;100838.19;4898876;29;20076;-94
2023/03/28 03:48:18;;;;;;;32.03;13.75;;;;;;;5.50;100.00;100844.81;4898814;29;20088;-95
2023/03/28 03:50:43;;;;;;;19.25;5.18;;;;;;;5.47;100.00;100850.03;4898914;29;20028;-96
2023/03/28 03:53:09;;;;;;;25.02;7.53;;;;;;;5.56;100.00;100861.72;4914428;29;20138;-95
2023/03/28 03:55:38;;;;;;;11.45;7.57;;;;;;;5.44;100.00;100857.81;4899003;29;20036;-95
2023/03/28 03:58:04;;;;;;;12.95;7.05;;;;;;;5.40;100.00;100845.97;4898793;29;20063;-96
2023/03/28 04:00:29;;;;;;;14.80;4.88;;;;;;;5.47;100.00;100854.31;4898681;29;20060;-94
2023/03/28 04:02:55;;;;;;;15.70;5.55;;;;;;;5.50;100.00;100843.97;4898986;29;20522;-96
2023/03/28 04:05:21;;;;;;;13.18;7.25;;;;;;;5.62;100.00;100869.22;4898634;29;20021;-95
2023/03/28 04:07:46;;;;;;;22.88;5.28;;;;;;;5.42;100.00;100823.72;4914349;29;20035;-94
2023/03/28 04:10:11;;;;;;;28.80;11.38;;;;;;;5.33;100.00;100826.56;4898599;29;20067;-95
2023/03/28 04:12:37;;;;;;;26.08;12.40;;;;;;;5.40;100.00;100843.41;4898474;29;20475;-94
2023/03/28 04:15:04;;;;;;;17.95;10.75;;;;;;;5.47;100.00;100847.47;4898253;29;20028;-94
2023/03/28 04:17:33;;;;;;;42.47;15.65;;;;;;;5.25;100.00;100826.78;4898199;29;20488;-94
2023/03/28 04:19:59;;;;;;;31.73;19.65;;;;;;;5.46;100.00;100850.94;4913996;29;20084;-95
2023/03/28 04:22:28;;;;;;;28.70;17.42;;;;;;;5.59;100.00;100864.19;4898421;29;20032;-95
2023/03/28 04:24:55;;;;;;;30.65;20.00;;;;;;;5.56;100.00;100849.75;4898115;29;20032;-95
2023/03/28 04:27:25;;;;;;;26.17;17.52;;;;;;;5.70;100.00;100866.41;4898187;29;20035;-96
2023/03/28 04:29:52;;;;;;;32.13;18.80;;;;;;;5.54;100.00;100838.72;4913857;29;20032;-94
2023/03/28 04:32:20;;;;;;;14.93;8.27;;;;;;;5.51;100.00;100825.16;4913875;29;20028;-95
2023/03/28 04:34:48;;;;;;;17.38;8.02;;;;;;;5.51;100.00;100830.28;4913714;29;20036;-96
2023/03/28 04:37:14;;;;;;;22.90;9.55;;;;;;;5.70;100.00;100846.75;4913787;29;20148;-96
2023/03/28 04:39:40;;;;;;;26.17;10.60;;;;;;;5.81;100.00;100851.56;4913672;29;20027;-94
2023/03/28 04:42:07;;;;;;;28.65;15.93;;;;;;;5.58;100.00;100821.53;4897907;29;20035;-96
2023/03/28 04:44:32;;;;;;;35.00;22.02;;;;;;;5.76;100.00;100846.59;4897852;29;20029;-96
2023/03/28 04:46:58;;;;;;;33.85;17.05;;;;;;;5.77;100.00;100852.53;4897742;29;20032;-95
2023/03/28 04:49:25;;;;;;;23.80;16.10;;;;;;;5.74;100.00;100827.03;4913528;29;20096;-95
2023/03/28 04:51:51;;;;;;;16.75;4.70;;;;;;;5.73;100.00;100828.75;4897911;29;20116;-94
2023/03/28 04:54:17;;;;;;;14.07;5.53;;;;;;;5.75;100.00;100831.25;4897593;29;20029;-96
2023/03/28 04:56:49;;;;;;;19.40;10.20;;;;;;;5.62;100.00;100799.25;4897648;29;20567;-95
2023/03/28 04:59:16;;;;;;;20.55;6.40;;;;;;;5.83;100.00;100837.00;4897579;29;20028;-96
2023/03/28 05:01:48;;;;;;;26.80;9.15;;;;;;;5.62;100.00;100806.94;4913467;29;20039;-95
2023/03/28 05:04:17;;;;;;;;;;;;;;;5.82;100.00;100839.59;4897672;29;20021;-95
2023/03/28 05:06:46;;;;;;;29.45;13.07;;;;;;;5.62;100.00;100812.03;4897130;29;19963;-94
2023/03/28 05:09:13;;;;;;;21.95;9.32;;;;;;;5.63;100.00;100808.59;4897122;29;20101;-95
2023/03/28 05:11:39;;;;;;;21.73;7.40;;;;;;;5.63;100.00;100811.16;4897146;29;20119;-95
2023/03/28 05:14:05;;;;;;;23.67;14.13;;;;;;;5.61;100.00;100808.66;4897089;29;20115;-95
2023/03/28 05:16:30;;;;;;;24.98;17.10;;;;;;;5.82;100.00;100840.44;4912744;29;20119;-94
2023/03/28 05:18:56;;;;;;;42.03;30.05;;;;;;;5.75;100.00;100819.28;4912864;29;20068;-95
2023/03/28 05:21:21;;;;;;;45.90;34.00;;;;;;;5.66;100.00;100811.91;4897393;29;20024;-95
2023/03/28 05:23:47;;;;;;;26.42;13.50;;;;;;;5.53;100.00;100793.50;4896957;29;20084;-95
2023/03/28 05:26:12;;;;;;;36.65;23.52;;;;;;;5.67;100.00;100810.19;4897427;29;20040;-96
2023/03/28 05:28:38;;;;;;;33.03;12.40;;;;;;;5.77;100.00;100826.94;4896997;29;20037;-94
2023/03/28 05:31:06;;;;;;;56.88;23.27;;;;;;;5.79;100.00;100825.16;4896699;29;20065;-95
2023/03/28 05:33:32;;;;;;;40.97;27.40;;;;;;;5.64;100.00;100794.91;4912426;29;20029;-94
2023/03/28 05:35:59;;;;;;;28.40;14.15;;;;;;;5.71;100.00;100801.53;4896755;29;20031;-95
2023/03/28 05:38:25;;;;;;;41.08;25.80;;;;;;;5.66;100.00;100795.72;4896960;29;20119;-95
2023/03/28 05:40:51;;;;;;;35.97;23.52;;;;;;;5.78;100.00;100803.84;4896852;29;20115;-96
2023/03/28 05:43:16;;;;;;;29.77;18.80;;;;;;;5.90;100.00;100812.00;4896717;29;20033;-95
2023/03/28 05:45:42;;;;;;;42.85;20.40;;;;;;;5.82;100.00;100785.81;4896562;29;20032;-95
2023/03/28 05:48:07;;;;;;;96.78;55.25;;;;;;;5.82;100.00;100802.00;4896743;29;20032;-95
2023/03/28 05:50:33;;;;;;;25.45;15.25;;;;;;;5.78;100.00;100803.84;4897047;29;20035;-95
2023/03/28 05:52:58;;;;;;;23.90;8.90;;;;;;;5.74;100.00;100784.31;4896547;29;20664;-95
2023/03/28 05:55:24;;;;;;;26.08;16.13;;;;;;;5.91;100.00;100804.28;4896756;29;20039;-95
2023/03/28 05:57:49;;;;;;;62.70;40.75;;;;;;;5.94;100.00;100804.19;4896723;29;20087;-95
2023/03/28 06:00:15;;;;;;;41.75;19.90;;;;;;;5.87;100.00;100802.69;4896412;29;20066;-95
2023/03/28 06:02:42;;;;;;;16.50;6.20;;;;;;;5.79;100.00;100773.94;4896715;29;20021;-95
2023/03/28 06:05:11;;;;;;;22.98;6.25;;;;;;;5.81;100.00;100782.41;4896576;29;20139;-95
2023/03/28 06:07:38;;;;;;;35.35;18.45;;;;;;;5.98;100.00;100810.09;4896440;29;20036;-95
2023/03/28 06:10:04;;;;;;;36.35;22.30;;;;;;;5.89;100.00;100790.69;4897044;29;20038;-95
2023/03/28 06:12:30;;;;;;;49.60;36.88;;;;;;;5.96;100.00;100792.19;4896436;29;20029;-94
2023/03/28 06:14:55;;;;;;;76.60;44.42;;;;;;;5.92;100.00;100777.75;4911829;29;20028;-95
2023/03/28 06:17:21;;;;;;;93.60;52.72;;;;;;;5.96;100.00;100774.25;4896264;29;20064;-94
2023/03/28 06:19:47;;;;;;;132.90;65.82;;;;;;;6.02;100.00;100770.63;4896707;29;20083;-95
2023/03/28 06:22:12;;;;;;;470.55;115.65;;;;;;;6.13;100.00;100770.31;4900440;29;20476;-94
2023/03/28 06:24:38;;;;;;;459.48;114.22;;;;;;;6.15;100.00;100771.91;4915884;29;20052;-95
2023/03/28 06:27:04;;;;;;;466.65;114.20;;;;;;;6.24;100.00;100770.75;4900156;29;20036;-94
2023/03/28 06:29:29;;;;;;;531.42;123.15;;;;;;;6.10;100.00;100743.06;4916160;29;20028;-95
2023/03/28 06:31:54;;;;;;;539.75;122.32;;;;;;;6.17;100.00;100736.84;4900166;29;20029;-96
2023/03/28 06:34:20;;;;;;;540.88;124.15;;;;;;;6.31;100.00;100736.34;4899878;29;20039;-95
2023/03/28 06:36:46;;;;;;;411.27;109.03;;;;;;;6.41;100.00;100736.84;4900810;29;20029;-94
2023/03/28 06:39:12;;;;;;;239.43;86.10;;;;;;;6.54;100.00;100752.66;4900749;29;20072;-95
2023/03/28 06:41:37;;;;;;;178.48;77.63;;;;;;;6.38;100.00;100737.78;4900197;29;20033;-95
2023/03/28 06:44:03;;;;;;;138.85;68.10;;;;;;;6.48;100.00;100742.59;4899997;29;20422;-95
2023/03/28 06:46:28;;;;;;;198.32;79.18;;;;;;;6.42;100.00;100729.13;4915835;29;20025;-94
2023/03/28 06:48:54;;;;;;;207.45;80.53;;;;;;;6.61;100.00;100749.81;4900108;29;20505;-95
2023/03/28 06:51:19;;;;;;;221.23;83.68;;;;;;;6.60;100.00;100743.00;4915720;29;20027;-96
2023/03/28 06:53:45;;;;;;;205.30;81.18;;;;;;;6.50;100.00;100722.88;4900167;29;20062;-95
2023/03/28 06:56:11;;;;;;;219.75;83.90;;;;;;;6.51;100.00;100721.97;4899698;29;20123;-96
2023/03/28 06:58:37;;;;;;;180.48;75.68;;;;;;;6.40;100.00;100709.53;4915377;29;20024;-96
2023/03/28 07:01:03;;;;;;;213.70;82.32;;;;;;;6.59;100.00;100731.06;4915661;29;20032;-94
2023/03/28 07:03:29;;;;;;;227.00;81.97;;;;;;;6.68;100.00;100729.88;4900097;29;20100;-95
2023/03/28 07:05:54;;;;;;;242.65;87.15;;;;;;;6.60;100.00;100701.13;4899577;29;20025;-95
2023/03/28 07:08:20;;;;;;;248.25;87.50;;;;;;;6.92;100.00;100742.72;4899494;29;20036;-95
2023/03/28 07:10:45;;;;;;;222.30;79.78;;;;;;;7.08;100.00;100743.81;4899447;29;20475;-95
2023/03/28 07:13:11;;;;;;;269.83;91.80;;;;;;;6.93;100.00;100718.75;4915623;29;20020;-95
2023/03/28 07:15:37;;;;;;;262.13;87.85;;;;;;;7.09;100.00;100730.06;4899519;29;20028;-94
2023/03/28 07:18:04;;;;;;;253.52;88.80;;;;;;;7.08;100.00;100718.16;4899562;29;20021;-96
2023/03/28 07:20:29;;;;;;;242.95;86.65;;;;;;;7.20;100.00;100734.81;4899559;29;20163;-95
2023/03/28 07:22:55;;;;;;;316.02;96.55;;;;;;;7.12;100.00;100703.44;4915207;29;20425;-95
2023/03/28 07:25:20;;;;;;;335.75;97.25;;;;;;;7.20;100.00;100696.31;4899123;29;20407;-95
2023/03/28 07:27:46;;;;;;;293.48;93.05;;;;;;;7.32;100.00;100705.25;4898951;29;20033;-95
2023/03/28 07:30:12;;;;;;;311.70;97.45;;;;;;;7.25;100.00;100705.50;4899153;29;20035;-95
2023/03/28 07:32:38;;;;;;;347.40;98.85;;;;;;;7.24;100.00;100697.84;4898500;29;20037;-95
2023/03/28 07:35:06;;;;;;;372.58;101.38;;;;;;;7.22;100.00;100664.53;4899164;29;20033;-94
2023/03/28 07:37:34;;;;;;;373.00;102.70;;;;;;;7.29;100.00;100691.66;4898814;29;20373;-95
2023/03/28 07:40:00;;;;;;;359.00;101.10;;;;;;;7.47;100.00;100699.50;4899057;29;20035;-95
2023/03/28 07:42:26;;;;;;;454.38;114.90;;;;;;;7.34;100.00;100682.91;4898849;29;20487;-95
2023/03/28 07:44:53;;;;;;;495.70;121.22;;;;;;;7.36;100.00;100681.13;4898565;29;20047;-95
2023/03/28 07:47:18;;;;;;;474.20;117.82;;;;;;;7.41;100.00;100681.75;4914400;29;20032;-96
2023/03/28 07:49:44;;;;;;;521.13;125.07;;;;;;;7.45;100.00;100683.31;4899105;29;20047;-94
2023/03/28 07:52:10;;;;;;;507.77;122.25;;;;;;;7.53;100.00;100704.38;4902597;29;20056;-95
2023/03/28 07:54:36;;;;;;;531.80;125.07;;;;;;;7.43;100.00;100669.69;4914714;29;20064;-95
2023/03/28 07:57:02;;;;;;;571.67;125.75;;;;;;;7.56;100.00;100693.13;4914695;29;20056;-95
2023/03/28 07:59:27;;;;;;;568.22;122.53;;;;;;;7.54;100.00;100708.63;4898653;29;20072;-95
2023/03/28 08:01:53;;;;;;;571.45;125.85;;;;;;;7.48;100.00;100711.44;4898673;29;20036;-95
2023/03/28 08:04:18;;;;;;;572.22;124.55;;;;;;;7.42;100.00;100706.56;4898866;29;20025;-95
2023/03/28 08:06:44;;;;;;;568.47;122.10;;;;;;;7.44;100.00;100712.47;4898407;29;20036;-95
2023/03/28 08:09:14;;;;;;;568.47;123.15;;;;;;;7.42;100.00;100693.72;4898302;29;20035;-96
2023/03/28 08:11:40;;;;;;;569.20;122.68;;;;;;;7.45;100.00;100693.59;4914102;29;20561;-94
2023/03/28 08:14:08;;;;;;;565.70;123.25;;;;;;;7.55;100.00;100718.00;4914183;29;20038;-94
2023/03/28 08:16:34;;;;;;;558.85;118.78;;;;;;;7.44;100.00;100689.38;4914361;29;20033;-94
2023/03/28 08:18:59;;;;;;;556.30;119.28;;;;;;;7.51;100.00;100690.78;4898346;29;20403;-95
2023/03/28 08:21:26;;;;;;;556.70;120.18;;;;;;;7.58;100.00;100694.75;4898064;29;20036;-94
2023/03/28 08:23:52;;;;;;;558.83;121.15;;;;;;;7.55;100.00;100699.19;4898049;29;20032;-94
2023/03/28 08:26:18;;;;;;;561.83;121.25;;;;;;;7.38;100.00;100689.59;4897648;29;20028;-92
2023/03/28 08:28:43;;;;;;;557.95;119.82;;;;;;;7.40;100.00;100705.78;4897788;29;20123;-94
2023/03/28 08:31:14;;;;;;;556.08;118.95;;;;;;;7.42;100.00;100696.28;4897749;29;20089;-95
2023/03/28 08:33:41;;;;;;;553.80;118.45;;;;;;;7.24;100.00;100682.44;4913574;29;20037;-93
2023/03/28 08:36:08;;;;;;;548.08;117.18;;;;;;;7.09;100.00;100665.91;4897798;29;20067;-94
2023/03/28 08:38:33;;;;;;;554.97;117.63;;;;;;;7.98;100.00;100693.09;4897439;29;20037;-93
2023/03/28 08:41:08;;;;;;;553.38;119.07;;;;;;;7.47;100.00;100691.81;4913254;29;20028;-93
2023/03/28 08:43:54;;;;;;;548.78;116.63;;;;;;;7.53;100.00;100688.97;4912398;29;20028;-93
2023/03/28 08:46:21;;;;;;;553.25;117.50;;;;;;;7.39;100.00;100683.53;4897075;29;20123;-93
2023/03/28 08:48:49;;;;;;;552.72;117.63;;;;;;;7.38;100.00;100692.16;4897280;29;20059;-92
2023/03/28 08:51:17;;;;;;;550.35;117.57;;;;;;;7.37;100.00;100704.16;4897038;29;20570;-93
2023/03/28 08:53:49;;;;;;;551.40;116.07;;;;;;;8.05;100.00;100702.22;4897177;29;20043;-93
2023/03/28 08:56:15;;;;;;;549.65;117.38;;;;;;;7.25;100.00;100684.94;4912739;29;20028;-93
2023/03/28 08:58:57;;;;;;;547.40;115.20;;;;;;;7.35;100.00;100705.13;4897117;29;20036;-93
2023/03/28 09:01:28;;;;;;;549.47;117.43;;;;;;;7.40;100.00;100703.22;4896955;29;20115;-94
2023/03/28 09:03:53;;;;;;;547.50;117.68;;;;;;;10.25;100.00;100684.16;4896832;29;20084;-94
2023/03/28 09:06:49;;;;;;;551.75;117.72;;;;;;;8.07;100.00;100697.00;4896684;29;20025;-92
2023/03/28 09:09:31;;;;;;;547.50;115.65;;;;;;;7.61;100.00;100663.81;4901394;29;20115;-93
2023/03/28 09:11:56;;;;;;;550.40;117.85;;;;;;;7.46;100.00;100687.53;4896543;29;20089;-92
2023/03/28 09:14:27;;;;;;;547.17;116.35;;;;;;;7.53;100.00;100676.13;4896644;29;20036;-93
2023/03/28 09:17:14;;;;;;;551.22;117.70;;;;;;;7.54;100.00;100654.69;4896947;29;20020;-92
2023/03/28 09:19:42;;;;;;;546.30;115.63;;;;;;;7.67;100.00;100660.97;4898001;29;20107;-93
2023/03/28 09:22:23;;;;;;;549.15;115.97;;;;;;;7.77;100.00;100652.88;4896979;29;20029;-94
2023/03/28 09:25:07;;;;;;;550.35;116.47;;;;;;;7.75;100.00;100657.25;4896647;29;20025;-94
2023/03/28 09:28:01;;;;;;;552.03;117.35;;;;;;;7.71;100.00;100631.69;4896835;29;20444;-93
2023/03/28 09:30:32;;;;;;;551.22;117.53;;;;;;;7.71;100.00;100623.16;4896526;29;20467;-93
2023/03/28 09:33:02;;;;;;;554.55;119.38;;;;;;;7.55;100.00;100599.84;4896355;29;20025;-93
2023/03/28 09:35:30;;;;;;;550.38;117.13;;;;;;;7.58;100.00;100592.00;4896594;29;20400;-94
2023/03/28 09:38:04;;;;;;;547.55;117.18;;;;;;;7.91;100.00;100622.31;4896738;29;20112;-93
2023/03/28 09:40:32;;;;;;;554.08;117.65;;;;;;;7.93;100.00;100594.81;4912200;29;20024;-93
2023/03/28 09:43:13;;;;;;;552.95;118.35;;;;;;;8.24;100.00;100614.00;4896725;29;20028;-94
2023/03/28 09:45:42;;;;;;;552.25;117.13;;;;;;;8.24;100.00;100617.41;4896448;29;20025;-94
2023/03/28 09:48:13;;;;;;;550.17;117.93;;;;;;;8.29;100.00;100599.19;4896555;29;20470;-93
2023/03/28 09:50:39;;;;;;;553.65;117.68;;;;;;;8.25;100.00;100610.53;4912232;29;20490;-95
2023/03/28 09:53:04;;;;;;;550.03;116.45;;;;;;;8.14;100.00;100611.00;4896496;29;20040;-93
2023/03/28 09:55:30;;;;;;;553.67;117.40;;;;;;;8.26;100.00;100600.16;4896088;29;20024;-93
2023/03/28 09:58:06;;;;;;;557.38;119.97;;;;;;;7.97;100.00;100601.47;4896320;29;20028;-94
2023/03/28 10:00:46;;;;;;;555.38;118.82;;;;;;;7.89;100.00;100582.97;4896291;29;20064;-93
2023/03/28 10:03:28;;;;;;;551.28;118.10;;;;;;;7.75;100.00;100585.31;4898278;29;20025;-94
2023/03/28 10:05:55;;;;;;;557.03;121.10;;;;;;;7.53;100.00;100601.63;4896046;29;20487;-92
2023/03/28 10:08:34;;;;;;;554.40;119.10;;;;;;;-143.29;100.00;62188.47;4911785;29;20037;-93
2023/03/28 10:11:01;;;;;;;547.00;116.80;;;;;;;-143.29;100.00;62188.47;4895978;29;20024;-92
2023/03/28 10:13:48;;;;;;;544.95;114.63;;;;;;;-143.29;100.00;62188.47;4896212;29;20391;-93
2023/03/28 10:16:23;;;;;;;544.75;116.63;;;;;;;-143.29;100.00;62188.47;4895898;29;20033;-93
2023/03/28 10:18:49;;;;;;;548.55;117.45;;;;;;;-143.29;100.00;62188.47;4896017;29;20056;-93
2023/03/28 10:21:19;;;;;;;546.90;115.32;;;;;;;-143.29;100.00;62188.47;4896229;29;20543;-92
2023/03/28 10:23:55;;;;;;;543.75;115.85;;;;;;;-143.29;100.00;62188.47;4896161;29;20476;-94
2023/03/28 10:26:23;;;;;;;550.85;117.97;;;;;;;-143.29;100.00;62188.47;4895682;29;20029;-92
2023/03/28 10:28:53;;;;;;;547.83;117.43;;;;;;;-143.29;100.00;62188.47;4897005;29;20047;-93
2023/03/28 10:31:30;;;;;;;552.28;116.97;;;;;;;-143.29;100.00;62188.47;4895880;29;20064;-93
2023/03/28 10:33:58;;;;;;;547.28;117.72;;;;;;;-143.29;100.00;62188.47;4895680;29;20032;-93
2023/03/28 10:36:28;;;;;;;547.53;117.75;;;;;;;-143.29;100.00;62188.47;4896051;29;20025;-93
2023/03/28 10:38:54;;;;;;;547.22;116.32;;;;;;;-143.29;100.00;62188.47;4895865;29;20488;-93
2023/03/28 10:41:21;;;;;;;550.47;116.53;;;;;;;-143.29;100.00;62188.47;4911633;29;20052;-92
2023/03/28 10:43:46;;;;;;;543.88;116.10;;;;;;;-143.29;100.00;62188.47;4895596;29;20025;-93
2023/03/28 10:46:16;;;;;;;550.05;115.80;;;;;;;-143.29;100.00;62188.47;4895684;29;20387;-93
2023/03/28 10:48:48;;;;;;;548.28;117.00;;;;;;;-143.29;100.00;62188.47;4911362;29;20056;-93
2023/03/28 10:51:20;;;;;;;553.38;118.80;;;;;;;-143.29;100.00;62188.47;4895956;29;20033;-94
2023/03/28 10:53:55;;;;;;;552.65;116.80;;;;;;;-143.29;100.00;62188.47;4895903;29;20036;-94
2023/03/28 10:56:20;;;;;;;553.15;116.95;;;;;;;-143.29;100.00;62188.47;4895646;29;20025;-93
2023/03/28 10:59:05;;;;;;;550.45;118.25;;;;;;;-143.29;100.00;62188.47;4895752;29;20024;-95
2023/03/28 11:01:39;;;;;;;560.97;118.78;;;;;;;-143.29;100.00;62188.47;4895735;29;20051;-93
2023/03/28 11:04:04;;;;;;;553.72;117.82;;;;;;;-143.29;100.00;62188.47;4895653;29;20028;-93
2023/03/28 11:07:06;;;;;;;557.58;120.22;;;;;;;-143.29;100.00;62188.47;4896856;29;20378;-93
2023/03/28 11:09:47;;;;;;;554.47;118.13;;;;;;;-143.29;100.00;62188.47;4899086;29;20122;-95
2023/03/28 11:12:19;;;;;;;553.00;117.07;;;;;;;-143.29;100.00;62188.47;4899030;29;20459;-93
2023/03/28 11:15:03;;;;;;;554.75;119.15;;;;;;;-143.29;100.00;62188.47;4898824;29;20028;-93
2023/03/28 11:18:00;;;;;;;558.72;121.38;;;;;;;-143.29;100.00;62188.47;4898789;29;20099;-93